Terminal Aerodrome Forecast
Issued by NWS

Home | Current Version | Previous Version | Text Only | Print | Product List | Glossary On
Versions: 1 2 3 4 5 6 7 8 9 10 11 12 13 14 15 16
435
FTUS46 KLOX 192352
TAFSBA
TAF
KSBA 192352Z 2000/2024 30010KT P6SM SCT040 BKN200 WS010/36030KT
     FM200300 33013G21KT P6SM FEW040 SCT200 WS010/36035KT
     FM200800 33008KT P6SM FEW040 SCT200
     FM201600 29010KT P6SM SKC
     FM201900 27015G25KT P6SM FEW040=

USA.gov is the U.S. government's official web portal to all federal, state and local government web resources and services.